createdAt,value
2022-12-18T00:01:34.458Z,59.10
2022-12-18T00:04:08.734Z,59.20
2022-12-18T00:06:36.187Z,70.40
2022-12-18T00:09:03.490Z,62.50
2022-12-18T00:11:31.329Z,63.20
2022-12-18T00:13:59.429Z,60.20
2022-12-18T00:16:27.555Z,57.60
2022-12-18T00:18:58.767Z,66.80
2022-12-18T00:21:25.962Z,67.70
2022-12-18T00:23:52.869Z,60.90
2022-12-18T00:26:22.793Z,63.70
2022-12-18T00:28:49.930Z,62.80
2022-12-18T00:31:20.523Z,62.30
2022-12-18T00:33:47.290Z,57.30
2022-12-18T00:36:19.396Z,61.30
2022-12-18T00:38:46.966Z,57.80
2022-12-18T00:41:35.548Z,63.50
2022-12-18T00:44:03.330Z,61.70
2022-12-18T00:46:30.170Z,55.30
2022-12-18T00:48:56.672Z,59.70
2022-12-18T00:51:23.560Z,56.40
2022-12-18T00:53:49.977Z,53.70
2022-12-18T00:56:16.435Z,52.10
2022-12-18T00:58:42.815Z,52.50
2022-12-18T01:01:09.261Z,57.40
2022-12-18T01:03:36.030Z,63.40
2022-12-18T01:06:08.226Z,60.30
2022-12-18T01:08:35.686Z,58.50
2022-12-18T01:11:10.140Z,62.50
2022-12-18T01:13:36.945Z,69.70
2022-12-18T01:16:03.903Z,64.10
2022-12-18T01:18:30.388Z,60.40
2022-12-18T01:20:57.137Z,65.50
2022-12-18T01:23:23.528Z,64.90
2022-12-18T01:25:49.984Z,64.90
2022-12-18T01:28:16.477Z,69.30
2022-12-18T01:30:42.816Z,74.10
2022-12-18T01:33:09.184Z,65.40
2022-12-18T01:35:42.182Z,63.50
2022-12-18T01:40:35.595Z,63.70
2022-12-18T01:43:02.002Z,66.10
2022-12-18T01:45:31.600Z,66.60
2022-12-18T01:48:05.813Z,74.70
2022-12-18T01:50:38.682Z,73.40
2022-12-18T01:53:15.801Z,77.60
2022-12-18T01:55:54.344Z,76.60
2022-12-18T01:58:29.342Z,76.90
2022-12-18T02:00:56.376Z,87.30
2022-12-18T02:03:22.915Z,83.00
2022-12-18T02:06:21.356Z,77.00
2022-12-18T02:09:19.228Z,75.00
2022-12-18T02:12:16.604Z,93.90
2022-12-18T02:14:51.812Z,82.70
2022-12-18T02:17:31.508Z,83.70
2022-12-18T02:20:18.286Z,81.70
2022-12-18T02:22:47.729Z,81.70
2022-12-18T02:25:23.000Z,94.40
2022-12-18T02:27:51.317Z,83.60
2022-12-18T02:30:18.585Z,87.30
2022-12-18T02:32:50.644Z,82.90
2022-12-18T02:35:22.650Z,87.90
2022-12-18T02:37:49.169Z,80.90
2022-12-18T02:40:17.292Z,83.50
2022-12-18T02:42:43.750Z,73.70
2022-12-18T02:45:10.667Z,72.20
2022-12-18T02:47:40.084Z,80.40
2022-12-18T02:50:17.489Z,79.60
2022-12-18T02:53:33.205Z,80.30
2022-12-18T02:56:06.361Z,77.10
2022-12-18T02:59:02.907Z,79.90
2022-12-18T03:01:50.652Z,88.80
2022-12-18T03:04:26.965Z,77.20
2022-12-18T03:07:00.472Z,69.70
2022-12-18T03:09:40.152Z,68.00
2022-12-18T03:12:28.650Z,83.80
2022-12-18T03:15:23.267Z,67.60
2022-12-18T03:17:56.747Z,70.70
2022-12-18T03:20:24.081Z,69.80
2022-12-18T03:22:56.163Z,79.30
2022-12-18T03:25:22.914Z,86.00
2022-12-18T03:27:53.615Z,74.60
2022-12-18T03:30:20.136Z,71.60
2022-12-18T03:32:52.377Z,75.90
2022-12-18T03:35:29.980Z,69.90
2022-12-18T03:37:56.357Z,70.30
2022-12-18T03:40:29.444Z,68.30
2022-12-18T03:43:03.880Z,64.50
2022-12-18T03:45:37.850Z,70.70
2022-12-18T03:48:26.087Z,66.50
2022-12-18T03:51:17.429Z,62.90
2022-12-18T03:53:52.118Z,67.40
2022-12-18T03:56:18.958Z,67.80
2022-12-18T03:58:46.368Z,76.20
2022-12-18T04:01:15.485Z,66.70
2022-12-18T04:03:43.254Z,74.10
2022-12-18T04:06:10.635Z,72.70
2022-12-18T04:08:37.350Z,66.30
2022-12-18T04:11:04.027Z,73.40
2022-12-18T04:13:38.597Z,80.00
2022-12-18T04:16:06.006Z,81.10
2022-12-18T04:18:32.705Z,76.00
2022-12-18T04:20:58.985Z,79.40
2022-12-18T04:23:25.348Z,78.60
2022-12-18T04:25:51.766Z,84.90
2022-12-18T04:28:18.233Z,83.60
2022-12-18T04:30:44.617Z,96.40
2022-12-18T04:33:12.716Z,81.90
2022-12-18T04:35:42.455Z,94.30
2022-12-18T04:38:10.193Z,94.80
2022-12-18T04:40:37.732Z,87.30
2022-12-18T04:43:04.703Z,91.00
2022-12-18T04:45:32.462Z,81.00
2022-12-18T04:48:00.411Z,89.20
2022-12-18T04:50:27.442Z,88.10
2022-12-18T04:52:53.977Z,94.50
2022-12-18T04:55:20.487Z,96.30
2022-12-18T04:57:46.831Z,87.50
2022-12-18T05:00:13.936Z,84.90
2022-12-18T05:02:40.478Z,85.90
2022-12-18T05:05:07.923Z,86.10
2022-12-18T05:07:34.364Z,102.50
2022-12-18T05:10:00.832Z,90.70
2022-12-18T05:12:27.245Z,91.90
2022-12-18T05:14:53.574Z,137.60
2022-12-18T05:17:19.977Z,148.70
2022-12-18T05:19:46.423Z,120.80
2022-12-18T05:22:12.836Z,107.00
2022-12-18T05:24:39.243Z,92.90
2022-12-18T05:27:05.621Z,93.00
2022-12-18T05:29:32.001Z,99.40
2022-12-18T05:31:58.376Z,103.40
2022-12-18T05:34:24.816Z,103.90
2022-12-18T05:36:51.303Z,99.30
2022-12-18T05:39:17.737Z,101.20
2022-12-18T05:41:44.053Z,104.60
2022-12-18T05:44:10.616Z,94.20
2022-12-18T05:46:37.081Z,108.30
2022-12-18T05:49:03.664Z,95.20
2022-12-18T05:51:30.004Z,87.60
2022-12-18T05:53:56.461Z,81.10
2022-12-18T05:56:23.168Z,93.00
2022-12-18T05:58:53.465Z,92.10
2022-12-18T06:01:24.718Z,94.30
2022-12-18T06:03:51.385Z,95.80
2022-12-18T06:06:28.800Z,102.60
2022-12-18T06:08:56.206Z,108.30
2022-12-18T06:11:25.351Z,104.70
2022-12-18T06:13:58.147Z,98.90
2022-12-18T06:18:51.615Z,88.40
2022-12-18T06:21:18.247Z,95.60
2022-12-18T06:23:44.733Z,94.40
2022-12-18T06:26:12.828Z,81.40
2022-12-18T06:28:39.395Z,92.60
2022-12-18T06:31:07.130Z,83.30
2022-12-18T06:33:34.900Z,81.00
2022-12-18T06:36:04.589Z,82.20
2022-12-18T06:38:33.268Z,79.50
2022-12-18T06:40:59.632Z,75.50
2022-12-18T06:43:26.497Z,67.00
2022-12-18T06:46:00.773Z,82.20
2022-12-18T06:48:27.674Z,74.90
2022-12-18T06:50:54.295Z,78.80
2022-12-18T06:53:20.718Z,86.80
2022-12-18T06:55:47.315Z,88.70
2022-12-18T06:58:13.918Z,77.90
2022-12-18T07:00:40.764Z,83.50
2022-12-18T07:03:07.295Z,80.20
2022-12-18T07:05:33.899Z,78.10
2022-12-18T07:08:00.657Z,75.70
2022-12-18T07:10:27.059Z,67.20
2022-12-18T07:12:53.490Z,84.00
2022-12-18T07:15:19.870Z,86.00
2022-12-18T07:17:46.256Z,70.40
2022-12-18T07:20:12.646Z,79.20
2022-12-18T07:22:39.043Z,67.90
2022-12-18T07:25:06.650Z,79.70
2022-12-18T07:27:33.123Z,71.10
2022-12-18T07:29:59.426Z,71.70
2022-12-18T07:32:25.737Z,70.50
2022-12-18T07:34:52.078Z,64.70
2022-12-18T07:37:18.499Z,69.40
2022-12-18T07:39:44.999Z,72.90
2022-12-18T07:42:30.478Z,84.80
2022-12-18T07:44:58.115Z,75.60
2022-12-18T07:47:25.000Z,79.20
2022-12-18T07:49:51.676Z,76.00
2022-12-18T07:52:22.848Z,78.10
2022-12-18T07:54:52.316Z,73.40
2022-12-18T07:57:48.452Z,78.80
2022-12-18T08:00:06.365Z,73.70
2022-12-18T08:02:32.887Z,79.10
2022-12-18T08:04:59.489Z,82.90
2022-12-18T08:07:25.914Z,89.60
2022-12-18T08:09:52.307Z,77.10
2022-12-18T08:12:18.739Z,78.90
2022-12-18T08:14:45.132Z,85.20
2022-12-18T08:17:11.535Z,77.60
2022-12-18T08:19:37.945Z,79.70
2022-12-18T08:22:04.348Z,78.30
2022-12-18T08:24:31.146Z,77.90
2022-12-18T08:27:27.974Z,79.40
2022-12-18T08:29:43.975Z,77.40
2022-12-18T08:32:10.793Z,86.00
2022-12-18T08:34:37.335Z,85.40
2022-12-18T08:37:04.051Z,80.30
2022-12-18T08:39:30.613Z,83.40
2022-12-18T08:42:15.653Z,77.60
2022-12-18T08:44:42.235Z,85.00
2022-12-18T08:47:08.693Z,71.90
2022-12-18T08:49:35.621Z,79.60
2022-12-18T08:52:03.105Z,67.80
2022-12-18T08:54:29.773Z,75.70
2022-12-18T08:56:56.257Z,60.60
2022-12-18T08:59:23.507Z,63.70
2022-12-18T09:01:50.265Z,63.10
2022-12-18T09:04:17.257Z,55.90
2022-12-18T09:06:43.838Z,52.70
2022-12-18T09:09:10.536Z,54.90
2022-12-18T09:11:37.210Z,54.90
2022-12-18T09:14:03.659Z,59.60
2022-12-18T09:16:32.939Z,53.00
2022-12-18T09:19:00.017Z,53.00
2022-12-18T09:21:31.584Z,60.60
2022-12-18T09:26:26.844Z,52.80
2022-12-18T09:28:53.679Z,61.40
2022-12-18T09:31:22.655Z,60.30
2022-12-18T09:33:49.221Z,58.80
2022-12-18T09:36:18.089Z,54.80
2022-12-18T09:38:44.700Z,52.80
2022-12-18T09:41:46.258Z,57.80
2022-12-18T09:44:46.793Z,60.60
2022-12-18T09:47:31.335Z,62.50
2022-12-18T09:50:02.199Z,63.10
2022-12-18T09:52:40.655Z,53.50
2022-12-18T09:55:26.461Z,52.40
2022-12-18T09:57:59.642Z,48.20
2022-12-18T10:00:26.214Z,57.20
2022-12-18T10:03:00.798Z,46.20
2022-12-18T10:05:51.631Z,47.30
2022-12-18T10:08:35.804Z,47.30
2022-12-18T10:11:21.724Z,53.00
2022-12-18T10:14:15.343Z,56.90
2022-12-18T10:17:12.807Z,54.10
2022-12-18T10:19:52.324Z,53.70
2022-12-18T10:22:59.149Z,49.10
2022-12-18T10:25:35.594Z,48.70
2022-12-18T10:28:14.528Z,51.30
2022-12-18T10:30:42.547Z,57.00
2022-12-18T10:33:17.098Z,48.60
2022-12-18T10:35:43.996Z,53.30
2022-12-18T10:38:16.766Z,60.40
2022-12-18T10:43:37.771Z,55.20
2022-12-18T10:46:10.356Z,50.90
2022-12-18T10:48:54.396Z,50.40
2022-12-18T10:51:27.209Z,59.10
2022-12-18T10:54:06.421Z,53.90
2022-12-18T10:56:37.061Z,54.10
2022-12-18T10:59:10.027Z,51.30
2022-12-18T11:01:49.923Z,49.40
2022-12-18T11:04:30.060Z,56.00
2022-12-18T11:07:06.013Z,62.20
2022-12-18T11:09:34.959Z,59.20
2022-12-18T11:12:10.674Z,50.70
2022-12-18T11:14:50.124Z,48.30
2022-12-18T11:17:30.108Z,47.90
2022-12-18T11:20:02.043Z,44.90
2022-12-18T11:22:34.251Z,46.80
2022-12-18T11:28:06.242Z,51.20
2022-12-18T11:30:37.064Z,66.70
2022-12-18T11:33:25.821Z,53.80
2022-12-18T11:35:54.935Z,68.80
2022-12-18T11:38:27.648Z,63.00
2022-12-18T11:43:59.610Z,60.40
2022-12-18T11:46:47.624Z,61.30
2022-12-18T11:49:22.053Z,57.60
2022-12-18T11:51:54.801Z,52.90
2022-12-18T11:57:09.853Z,53.90
2022-12-18T11:59:50.117Z,58.80
2022-12-18T12:02:35.152Z,46.50
2022-12-18T12:05:41.200Z,54.90
2022-12-18T12:08:41.689Z,51.00
2022-12-18T12:11:34.905Z,64.00
2022-12-18T12:17:33.810Z,57.30
2022-12-18T12:20:38.301Z,99.30
2022-12-18T12:23:34.095Z,89.00
2022-12-18T12:26:10.637Z,63.80
2022-12-18T12:28:55.705Z,58.40
2022-12-18T12:31:44.745Z,60.50
2022-12-18T12:34:21.041Z,67.80
2022-12-18T12:37:16.020Z,76.90
2022-12-18T12:39:45.117Z,57.70
2022-12-18T12:42:48.389Z,64.00
2022-12-18T12:45:35.410Z,61.60
2022-12-18T12:48:03.886Z,60.80
2022-12-18T12:50:34.110Z,60.70
2022-12-18T12:53:02.190Z,63.10
2022-12-18T12:55:29.691Z,60.50
2022-12-18T12:58:26.794Z,64.70
2022-12-18T13:01:18.478Z,70.80
2022-12-18T13:04:03.876Z,71.80
2022-12-18T13:06:44.661Z,72.50
2022-12-18T13:09:11.494Z,74.10
2022-12-18T13:12:05.351Z,74.90
2022-12-18T13:17:21.680Z,78.30
2022-12-18T13:20:11.002Z,84.60
2022-12-18T13:22:42.869Z,81.30
2022-12-18T13:25:36.861Z,80.90
2022-12-18T13:28:14.358Z,71.90
2022-12-18T13:30:41.641Z,76.10
2022-12-18T13:33:14.430Z,80.80
2022-12-18T13:35:48.448Z,77.60
2022-12-18T13:38:37.237Z,85.30
2022-12-18T13:41:19.201Z,80.40
2022-12-18T13:44:20.502Z,83.10
2022-12-18T13:46:49.131Z,79.10
2022-12-18T13:49:42.407Z,91.30
2022-12-18T13:52:21.726Z,90.70
2022-12-18T13:54:54.589Z,84.80
2022-12-18T13:57:38.629Z,76.60
2022-12-18T14:00:29.439Z,85.90
2022-12-18T14:02:58.308Z,78.60
2022-12-18T14:05:27.849Z,83.20
2022-12-18T14:07:55.046Z,89.80
2022-12-18T14:13:11.019Z,93.90
2022-12-18T14:15:44.663Z,97.90
2022-12-18T14:21:02.704Z,95.20
2022-12-18T14:23:40.122Z,81.10
2022-12-18T14:26:30.363Z,93.70
2022-12-18T14:29:01.296Z,92.00
2022-12-18T14:31:30.697Z,80.10
2022-12-18T14:33:57.108Z,78.60
2022-12-18T14:36:26.979Z,75.30
2022-12-18T14:38:58.656Z,75.30
2022-12-18T14:41:26.174Z,83.70
2022-12-18T14:43:54.666Z,76.80
2022-12-18T14:46:33.430Z,82.60
2022-12-18T14:49:34.336Z,86.80
2022-12-18T14:52:04.208Z,91.80
2022-12-18T14:54:31.747Z,92.80
2022-12-18T14:57:20.403Z,100.40
2022-12-18T14:59:48.970Z,104.30
2022-12-18T15:02:29.150Z,91.70
2022-12-18T15:05:13.300Z,93.00
2022-12-18T15:07:43.494Z,89.10
2022-12-18T15:10:20.625Z,94.10
2022-12-18T15:13:08.250Z,72.30
2022-12-18T15:15:36.294Z,85.50
2022-12-18T15:18:08.910Z,83.90
2022-12-18T15:21:09.334Z,78.10
2022-12-18T15:23:52.595Z,88.10
2022-12-18T15:26:21.938Z,103.20
2022-12-18T15:28:50.273Z,101.10
2022-12-18T15:31:17.772Z,88.50
2022-12-18T15:33:52.531Z,85.80
2022-12-18T15:36:26.190Z,96.50
2022-12-18T15:39:02.161Z,80.10
2022-12-18T15:41:36.720Z,87.70
2022-12-18T15:44:21.348Z,85.10
2022-12-18T15:46:47.794Z,84.90
2022-12-18T15:49:14.190Z,81.30
2022-12-18T15:51:40.773Z,86.70
2022-12-18T15:54:13.401Z,93.20
2022-12-18T15:56:59.011Z,95.80
2022-12-18T15:59:25.401Z,92.90
2022-12-18T16:01:55.579Z,97.70
2022-12-18T16:04:23.904Z,81.60
2022-12-18T16:07:13.933Z,91.00
2022-12-18T16:09:38.974Z,86.40
2022-12-18T16:12:23.136Z,82.80
2022-12-18T16:14:50.756Z,94.50
2022-12-18T16:17:17.830Z,82.30
2022-12-18T16:19:44.940Z,87.30
2022-12-18T16:22:22.218Z,87.00
2022-12-18T16:24:49.675Z,90.10
2022-12-18T16:27:16.509Z,90.00
2022-12-18T16:29:42.980Z,92.80
2022-12-18T16:32:14.284Z,87.30
2022-12-18T16:34:42.305Z,96.70
2022-12-18T16:37:10.665Z,82.10
2022-12-18T16:39:38.323Z,89.40
2022-12-18T16:42:12.858Z,87.10
2022-12-18T16:44:39.293Z,82.20
2022-12-18T16:47:05.625Z,89.70
2022-12-18T16:49:34.679Z,79.80
2022-12-18T16:52:01.237Z,83.30
2022-12-18T16:54:29.807Z,89.70
2022-12-18T16:56:56.791Z,86.90
2022-12-18T16:59:23.198Z,93.20
2022-12-18T17:01:50.483Z,91.10
2022-12-18T17:04:17.082Z,92.30
2022-12-18T17:06:45.394Z,91.60
2022-12-18T17:09:15.561Z,110.00
2022-12-18T17:11:42.446Z,103.30
2022-12-18T17:14:14.330Z,100.40
2022-12-18T17:16:40.896Z,86.20
2022-12-18T17:19:09.762Z,87.50
2022-12-18T17:24:07.561Z,85.40
2022-12-18T17:26:34.066Z,80.00
2022-12-18T17:29:00.636Z,80.70
2022-12-18T17:31:29.219Z,82.60
2022-12-18T17:33:56.528Z,84.20
2022-12-18T17:36:24.258Z,83.20
2022-12-18T17:38:52.940Z,91.10
2022-12-18T17:41:19.946Z,88.00
2022-12-18T17:44:01.513Z,90.30
2022-12-18T17:46:30.421Z,93.60
2022-12-18T17:48:58.787Z,98.50
2022-12-18T17:51:26.339Z,89.30
2022-12-18T17:53:53.424Z,88.80
2022-12-18T17:56:22.655Z,81.20
2022-12-18T17:58:52.552Z,89.60
2022-12-18T18:01:24.059Z,85.40
2022-12-18T18:03:53.589Z,93.30
2022-12-18T18:06:20.717Z,85.70
2022-12-18T18:08:54.861Z,86.10
2022-12-18T18:11:42.965Z,79.60
2022-12-18T18:14:19.254Z,89.80
2022-12-18T18:16:49.328Z,93.00
2022-12-18T18:19:19.799Z,94.90
2022-12-18T18:21:48.689Z,86.10
2022-12-18T18:24:19.722Z,83.20
2022-12-18T18:26:46.504Z,82.40
2022-12-18T18:29:19.767Z,85.20
2022-12-18T18:31:47.089Z,87.80
2022-12-18T18:34:16.584Z,92.20
2022-12-18T18:36:44.871Z,81.10
2022-12-18T18:39:12.478Z,87.60
2022-12-18T18:41:38.984Z,84.50
2022-12-18T18:44:06.340Z,88.30
2022-12-18T18:46:33.132Z,89.30
2022-12-18T18:48:59.631Z,86.50
2022-12-18T18:51:30.055Z,95.60
2022-12-18T18:53:59.662Z,96.20
2022-12-18T18:56:56.495Z,93.90
2022-12-18T18:59:14.838Z,82.40
2022-12-18T19:01:41.461Z,71.50
2022-12-18T19:04:08.002Z,96.00
2022-12-18T19:06:34.602Z,96.10
2022-12-18T19:09:03.688Z,86.20
2022-12-18T19:11:48.913Z,84.10
2022-12-18T19:14:16.471Z,88.20
2022-12-18T19:16:44.627Z,86.20
2022-12-18T19:19:12.293Z,90.90
2022-12-18T19:21:38.743Z,87.40
2022-12-18T19:24:05.881Z,90.60
2022-12-18T19:26:32.472Z,85.70
2022-12-18T19:29:07.505Z,79.40
2022-12-18T19:31:36.664Z,89.10
2022-12-18T19:34:06.077Z,88.60
2022-12-18T19:36:35.340Z,81.40
2022-12-18T19:39:11.040Z,91.30
2022-12-18T19:41:37.723Z,88.20
2022-12-18T19:44:07.875Z,91.40
2022-12-18T19:46:35.802Z,80.30
2022-12-18T19:49:02.762Z,89.60
2022-12-18T19:51:30.853Z,89.70
2022-12-18T19:54:01.256Z,89.30
2022-12-18T19:56:33.942Z,102.20
2022-12-18T19:59:02.397Z,82.00
2022-12-18T20:01:29.849Z,86.30
2022-12-18T20:03:58.238Z,95.40
2022-12-18T20:06:36.404Z,88.40
2022-12-18T20:09:06.425Z,87.90
2022-12-18T20:11:39.644Z,84.00
2022-12-18T20:14:13.474Z,96.10
2022-12-18T20:16:40.894Z,94.60
2022-12-18T20:19:08.257Z,80.80
2022-12-18T20:21:35.306Z,87.50
2022-12-18T20:24:01.786Z,91.00
2022-12-18T20:26:28.730Z,94.60
2022-12-18T20:28:55.847Z,97.80
2022-12-18T20:31:23.214Z,91.20
2022-12-18T20:33:52.097Z,95.80
2022-12-18T20:36:22.616Z,115.40
2022-12-18T20:38:58.114Z,105.30
2022-12-18T20:41:31.607Z,123.40
2022-12-18T20:44:07.467Z,113.90
2022-12-18T20:46:42.200Z,107.10
2022-12-18T20:49:09.335Z,114.40
2022-12-18T20:51:36.248Z,109.60
2022-12-18T20:54:03.377Z,105.30
2022-12-18T20:56:30.102Z,128.90
2022-12-18T20:58:58.731Z,111.60
2022-12-18T21:01:27.771Z,118.10
2022-12-18T21:03:54.412Z,120.60
2022-12-18T21:06:22.903Z,134.10
2022-12-18T21:08:49.911Z,145.60
2022-12-18T21:11:37.747Z,132.60
2022-12-18T21:14:26.965Z,124.80
2022-12-18T21:16:54.284Z,133.00
2022-12-18T21:19:24.320Z,115.90
2022-12-18T21:21:52.652Z,126.00
2022-12-18T21:24:19.962Z,121.40
2022-12-18T21:26:48.450Z,143.20
2022-12-18T21:29:22.695Z,118.70
2022-12-18T21:31:50.296Z,115.80
2022-12-18T21:34:22.986Z,121.30
2022-12-18T21:39:16.278Z,109.40
2022-12-18T21:42:01.946Z,111.80
2022-12-18T21:44:29.021Z,121.50
2022-12-18T21:47:01.538Z,102.80
2022-12-18T21:49:32.898Z,110.00
2022-12-18T21:52:00.460Z,110.20
2022-12-18T21:54:28.848Z,115.70
2022-12-18T21:57:04.017Z,108.80
2022-12-18T21:59:39.349Z,116.20
2022-12-18T22:02:15.711Z,111.80
2022-12-18T22:04:43.270Z,126.60
2022-12-18T22:07:10.932Z,163.20
2022-12-18T22:09:38.340Z,240.30
2022-12-18T22:12:05.525Z,241.80
2022-12-18T22:14:32.148Z,215.50
2022-12-18T22:16:58.558Z,241.70
2022-12-18T22:19:25.197Z,200.30
2022-12-18T22:21:52.119Z,193.20
2022-12-18T22:24:23.881Z,228.10
2022-12-18T22:26:53.656Z,196.50
2022-12-18T22:29:43.862Z,140.80
2022-12-18T22:32:23.412Z,173.20
2022-12-18T22:35:05.780Z,191.40
2022-12-18T22:37:32.638Z,183.70
2022-12-18T22:39:58.987Z,181.80
2022-12-18T22:42:29.171Z,154.70
2022-12-18T22:44:55.549Z,161.80
2022-12-18T22:47:24.299Z,212.70
2022-12-18T22:49:54.330Z,167.80
2022-12-18T22:52:20.681Z,163.60
2022-12-18T22:54:49.815Z,184.50
2022-12-18T22:57:16.200Z,185.90
2022-12-18T22:59:42.612Z,149.70
2022-12-18T23:02:09.152Z,155.30
2022-12-18T23:04:36.838Z,139.10
2022-12-18T23:07:05.347Z,149.70
2022-12-18T23:09:32.252Z,136.70
2022-12-18T23:11:58.981Z,150.90
2022-12-18T23:14:26.145Z,143.10
2022-12-18T23:16:53.037Z,176.70
2022-12-18T23:19:20.684Z,160.90
2022-12-18T23:21:47.391Z,140.30
2022-12-18T23:24:14.599Z,138.40
2022-12-18T23:26:41.187Z,136.80
2022-12-18T23:29:07.557Z,134.70
2022-12-18T23:31:37.828Z,131.30
2022-12-18T23:34:05.735Z,133.50
2022-12-18T23:36:40.945Z,121.20
2022-12-18T23:39:22.358Z,123.70
2022-12-18T23:41:58.597Z,121.50
2022-12-18T23:44:25.322Z,127.60
2022-12-18T23:46:52.149Z,125.40
2022-12-18T23:49:18.564Z,124.90
2022-12-18T23:51:44.916Z,128.20
2022-12-18T23:54:11.405Z,111.00
2022-12-18T23:56:37.817Z,119.50
2022-12-18T23:59:04.344Z,134.20
